Time;durP1;ratioP1;P1;durP2;ratioP2;P2;SDS_P1;SDS_P2;PMS_P1;PMS_P2;Temp;Humidity;BMP_temperature;BMP_pressure;BME280_temperature;BME280_humidity;BME280_pressure;Samples;Min_cycle;Max_cycle;Signal;HPM_P1;HPM_P2
2022/11/30 00:00:18;;;;;;;11.87;4.60;;;;;;;10.39;79.94;99301.78;6276846;22;20622;-90
2022/11/30 00:02:44;;;;;;;9.83;4.23;;;;;;;10.44;79.71;99303.25;6276572;22;20159;-90
2022/11/30 00:05:10;;;;;;;12.33;4.10;;;;;;;10.39;79.63;99302.63;6249946;22;20156;-91
2022/11/30 00:07:36;;;;;;;12.60;4.37;;;;;;;10.42;79.82;99302.50;6249877;22;20526;-91
2022/11/30 00:10:01;;;;;;;13.33;5.50;;;;;;;10.49;79.96;99289.91;6276545;22;20647;-91
2022/11/30 00:12:27;;;;;;;8.77;4.90;;;;;;;10.53;79.29;99286.25;6276609;22;20149;-91
2022/11/30 00:14:53;;;;;;;15.33;6.67;;;;;;;10.58;79.68;99275.50;6276583;22;20476;-91
2022/11/30 00:17:18;;;;;;;17.67;8.40;;;;;;;10.55;79.52;99289.63;6251041;22;20232;-91
2022/11/30 00:19:44;;;;;;;19.97;8.67;;;;;;;10.49;79.87;99288.16;6276472;22;20584;-90
2022/11/30 00:22:09;;;;;;;19.90;8.07;;;;;;;10.64;79.87;99278.66;6276755;22;20187;-91
2022/11/30 00:24:35;;;;;;;18.67;8.73;;;;;;;10.71;79.48;99279.22;6276528;22;20155;-90
2022/11/30 00:27:00;;;;;;;21.20;9.70;;;;;;;10.69;79.75;99289.75;6249842;22;20162;-90
2022/11/30 00:29:25;;;;;;;19.23;8.53;;;;;;;10.80;79.54;99283.97;6250138;22;20152;-90
2022/11/30 00:31:51;;;;;;;25.80;10.17;;;;;;;10.83;79.03;99289.06;6249833;22;20163;-91
2022/11/30 00:34:16;;;;;;;24.37;10.93;;;;;;;10.75;79.56;99285.97;6249907;22;20156;-91
2022/11/30 00:36:42;;;;;;;17.90;8.87;;;;;;;10.78;79.35;99283.22;6276519;22;20183;-90
2022/11/30 00:39:07;;;;;;;25.87;10.57;;;;;;;10.76;79.75;99279.81;6250230;22;20148;-90
2022/11/30 00:41:33;;;;;;;20.43;10.23;;;;;;;10.74;79.97;99282.53;6276418;22;20168;-91
2022/11/30 00:43:58;;;;;;;25.97;8.90;;;;;;;10.77;79.62;99276.28;6276368;22;20447;-91
2022/11/30 00:46:24;;;;;;;16.23;7.80;;;;;;;10.71;79.95;99272.19;6249629;22;20151;-90
2022/11/30 00:48:49;;;;;;;16.83;8.17;;;;;;;10.72;80.08;99278.28;6274806;22;20476;-90
2022/11/30 00:51:15;;;;;;;12.87;6.80;;;;;;;10.76;80.40;99274.56;6277130;22;20141;-90
2022/11/30 00:53:41;;;;;;;13.27;5.03;;;;;;;10.71;80.75;99276.59;6249775;22;20149;-90
2022/11/30 00:56:07;;;;;;;6.60;3.53;;;;;;;10.66;80.88;99270.75;6276392;22;20168;-91
2022/11/30 00:58:33;;;;;;;5.53;2.40;;;;;;;10.67;81.05;99269.78;6249619;22;20239;-90
2022/11/30 01:00:59;;;;;;;8.33;3.33;;;;;;;10.74;80.33;99272.06;6276607;22;20620;-91
2022/11/30 01:03:24;;;;;;;9.93;3.53;;;;;;;10.79;80.65;99261.31;6249656;22;20171;-91
2022/11/30 01:05:49;;;;;;;6.13;2.40;;;;;;;10.72;80.46;99267.78;6276741;22;20144;-90
2022/11/30 01:08:15;;;;;;;4.70;2.43;;;;;;;10.77;80.71;99269.25;6249756;22;20156;-91
2022/11/30 01:10:41;;;;;;;4.73;2.30;;;;;;;10.83;80.50;99275.94;6249666;22;20521;-90
2022/11/30 01:13:13;;;;;;;8.23;2.60;;;;;;;10.88;80.47;99274.78;6249578;22;20199;-90
2022/11/30 01:15:42;;;;;;;4.67;2.57;;;;;;;10.87;80.48;99267.88;6276433;22;20129;-91
2022/11/30 01:18:08;;;;;;;4.67;2.47;;;;;;;10.91;80.63;99265.91;6276592;22;20155;-90
2022/11/30 01:20:34;;;;;;;3.40;1.97;;;;;;;10.94;80.00;99268.38;6244844;23;20279;-91
2022/11/30 01:22:59;;;;;;;6.40;2.77;;;;;;;10.93;80.54;99271.94;6246461;23;20163;-91
2022/11/30 01:25:25;;;;;;;4.23;2.17;;;;;;;11.06;80.30;99262.50;6246372;23;20164;-90
2022/11/30 01:27:50;;;;;;;3.73;2.03;;;;;;;10.96;79.37;99261.28;6246334;23;20153;-91
2022/11/30 01:30:17;;;;;;;5.30;1.80;;;;;;;10.78;80.04;99268.34;6246425;23;20497;-91
2022/11/30 01:32:42;;;;;;;5.37;1.70;;;;;;;10.71;80.55;99269.59;6246298;23;20581;-90
2022/11/30 01:35:08;;;;;;;3.33;1.77;;;;;;;10.81;80.12;99269.94;6246176;23;20195;-91
2022/11/30 01:37:34;;;;;;;4.40;1.67;;;;;;;10.76;79.95;99267.56;6247286;23;20157;-90
2022/11/30 01:40:00;;;;;;;4.23;2.33;;;;;;;10.88;79.61;99264.31;6247270;22;20594;-91
2022/11/30 01:42:26;;;;;;;3.87;1.93;;;;;;;10.77;79.42;99278.91;6247436;22;20527;-90
2022/11/30 01:44:56;;;;;;;4.90;2.07;;;;;;;10.62;80.30;99272.66;6246142;23;20195;-90
2022/11/30 01:47:25;;;;;;;4.60;1.97;;;;;;;10.64;80.26;99269.97;6247762;22;20195;-90
2022/11/30 01:50:00;;;;;;;3.17;1.57;;;;;;;10.61;80.43;99270.13;6247349;22;20176;-90
2022/11/30 01:52:31;;;;;;;11.20;2.43;;;;;;;10.61;80.64;99270.13;6246181;23;20202;-91
2022/11/30 01:55:01;;;;;;;3.47;1.80;;;;;;;10.63;80.12;99268.25;6246077;23;20149;-91
2022/11/30 01:57:30;;;;;;;5.90;1.93;;;;;;;10.56;80.30;99269.50;6247196;23;20216;-91
2022/11/30 02:00:00;;;;;;;3.73;1.90;;;;;;;10.44;80.74;99261.34;6247083;22;20181;-90
2022/11/30 02:02:36;;;;;;;4.77;2.47;;;;;;;10.40;81.32;99259.78;6247232;22;20156;-90
2022/11/30 02:05:02;;;;;;;3.20;1.83;;;;;;;10.18;81.87;99267.00;6245962;23;20160;-90
2022/11/30 02:07:27;;;;;;;3.83;1.57;;;;;;;10.17;82.27;99259.22;6247402;22;20149;-90
2022/11/30 02:09:53;;;;;;;2.80;2.17;;;;;;;10.17;82.18;99261.81;6247210;22;20220;-90
2022/11/30 02:12:47;;;;;;;4.67;1.90;;;;;;;10.44;81.11;99268.34;6247057;22;20573;-90
2022/11/30 02:15:20;;;;;;;4.27;1.93;;;;;;;10.41;81.43;99269.34;6203030;22;20157;-90
2022/11/30 02:18:10;;;;;;;4.00;2.20;;;;;;;10.30;81.21;99266.41;6245850;23;20214;-90
2022/11/30 02:21:00;;;;;;;2.27;1.73;;;;;;;10.30;80.74;99266.41;6271521;22;20180;-90
2022/11/30 02:23:45;;;;;;;2.97;1.60;;;;;;;10.24;81.60;99263.25;6277972;22;20232;-91
2022/11/30 02:26:33;;;;;;;3.40;1.80;;;;;;;10.26;81.54;99259.63;6250944;22;20496;-91
2022/11/30 02:28:58;;;;;;;3.13;1.73;;;;;;;10.05;82.22;99265.88;6250775;22;20156;-91
2022/11/30 02:31:52;;;;;;;4.90;2.47;;;;;;;10.17;81.59;99257.44;6278154;22;20578;-90
2022/11/30 02:34:20;;;;;;;4.23;2.37;;;;;;;10.07;82.10;99248.31;6244789;22;20255;-91
2022/11/30 02:36:47;;;;;;;3.27;2.03;;;;;;;10.32;81.14;99259.34;6277407;22;20148;-90
2022/11/30 02:39:12;;;;;;;3.07;1.67;;;;;;;10.15;81.36;99259.28;6277739;22;20149;-89
2022/11/30 02:41:38;;;;;;;3.47;1.60;;;;;;;10.19;81.27;99268.72;6277667;22;20180;-90
2022/11/30 02:44:05;;;;;;;3.97;2.37;;;;;;;9.92;82.55;99263.91;6250547;22;20153;-90
2022/11/30 02:46:42;;;;;;;7.40;2.43;;;;;;;9.93;82.42;99279.56;6277329;22;20144;-90
2022/11/30 02:49:22;;;;;;;4.47;2.17;;;;;;;9.94;82.34;99275.16;6277679;22;20143;-90
2022/11/30 02:51:50;;;;;;;5.73;2.87;;;;;;;10.08;81.89;99283.22;6250612;22;20148;-91
2022/11/30 02:54:17;;;;;;;5.23;2.20;;;;;;;10.06;81.82;99277.19;6277288;22;20148;-90
2022/11/30 02:56:43;;;;;;;8.20;2.03;;;;;;;10.27;81.15;99277.03;6250515;22;20603;-90
2022/11/30 02:59:08;;;;;;;4.43;1.97;;;;;;;10.10;81.56;99274.34;6250505;22;20156;-91
2022/11/30 03:01:34;;;;;;;6.20;2.83;;;;;;;10.05;81.58;99281.59;6277062;22;20180;-89
2022/11/30 03:03:59;;;;;;;5.37;2.20;;;;;;;10.31;80.91;99286.44;6250451;22;20152;-90
2022/11/30 03:06:25;;;;;;;7.80;2.80;;;;;;;10.23;80.29;99280.72;6277156;22;20148;-90
2022/11/30 03:08:50;;;;;;;4.90;2.23;;;;;;;10.24;80.56;99271.97;6277400;22;20624;-90
2022/11/30 03:11:16;;;;;;;6.13;2.73;;;;;;;10.01;81.20;99295.72;6250808;22;20441;-90
2022/11/30 03:13:41;;;;;;;2.93;2.03;;;;;;;10.23;80.63;99283.34;6277061;22;20148;-91
2022/11/30 03:16:08;;;;;;;5.13;2.17;;;;;;;10.07;81.21;99284.97;6251325;22;20157;-90
2022/11/30 03:18:34;;;;;;;5.73;2.87;;;;;;;10.12;81.09;99293.50;6276975;22;20158;-91
2022/11/30 03:20:59;;;;;;;4.50;2.03;;;;;;;10.25;80.41;99289.34;6276760;22;20263;-90
2022/11/30 03:23:24;;;;;;;5.70;2.27;;;;;;;10.21;80.44;99295.69;6250248;22;20254;-90
2022/11/30 03:25:50;;;;;;;4.27;2.37;;;;;;;10.09;80.94;99303.25;6277624;22;20148;-91
2022/11/30 03:28:15;;;;;;;5.53;1.60;;;;;;;10.19;80.93;99292.28;6276857;22;20148;-90
2022/11/30 03:30:47;;;;;;;3.87;1.83;;;;;;;10.17;80.58;99295.88;6277253;22;20133;-91
2022/11/30 03:33:13;;;;;;;4.03;2.50;;;;;;;9.98;80.88;99303.75;6277593;22;20141;-90
2022/11/30 03:35:38;;;;;;;4.57;2.47;;;;;;;10.02;81.38;99302.69;6250091;22;20229;-90
2022/11/30 03:38:03;;;;;;;5.87;1.93;;;;;;;10.13;80.78;99304.81;6276871;22;20164;-91
2022/11/30 03:40:29;;;;;;;4.10;2.07;;;;;;;10.30;80.06;99302.22;6250120;22;20203;-91
2022/11/30 03:42:54;;;;;;;5.03;2.00;;;;;;;10.27;79.81;99308.47;6249861;22;20217;-91
2022/11/30 03:45:20;;;;;;;4.33;1.90;;;;;;;10.34;79.52;99304.63;6250072;22;20643;-91
2022/11/30 03:47:45;;;;;;;5.30;2.47;;;;;;;10.15;79.74;99293.34;6251090;22;20155;-91
2022/11/30 03:50:11;;;;;;;6.40;2.77;;;;;;;10.12;79.97;99301.34;6277012;22;20451;-90
2022/11/30 03:52:36;;;;;;;4.50;2.30;;;;;;;10.25;79.51;99294.59;6276764;22;20147;-90
2022/11/30 03:55:02;;;;;;;5.33;2.67;;;;;;;10.17;79.78;99296.72;6249890;22;20237;-91
2022/11/30 03:57:28;;;;;;;3.80;1.77;;;;;;;10.19;79.43;99308.00;6276609;22;20623;-91
2022/11/30 03:59:53;;;;;;;7.73;2.43;;;;;;;10.27;79.50;99294.53;6249893;22;20256;-90
2022/11/30 04:02:19;;;;;;;4.63;2.13;;;;;;;10.23;79.53;99306.06;6249851;22;20513;-90
2022/11/30 04:04:44;;;;;;;4.30;1.80;;;;;;;10.32;79.26;99298.63;6276925;22;20152;-90
2022/11/30 04:07:10;;;;;;;4.97;2.57;;;;;;;10.33;79.46;99307.31;6250570;22;20235;-90
2022/11/30 04:09:35;;;;;;;7.37;3.00;;;;;;;10.28;78.73;99310.16;6276575;22;20171;-90
2022/11/30 04:12:00;;;;;;;6.20;2.87;;;;;;;10.28;78.54;99314.56;6249943;22;20599;-91
2022/11/30 04:14:26;;;;;;;4.50;2.57;;;;;;;10.37;78.48;99304.50;6276989;22;20489;-91
2022/11/30 04:16:51;;;;;;;5.93;2.53;;;;;;;10.40;78.06;99309.56;6250960;22;20159;-90
2022/11/30 04:19:17;;;;;;;5.30;2.60;;;;;;;10.34;78.15;99309.88;6276511;22;20253;-90
2022/11/30 04:21:42;;;;;;;7.80;3.07;;;;;;;10.42;78.22;99310.34;6249816;22;20432;-90
2022/11/30 04:24:08;;;;;;;4.80;2.23;;;;;;;10.26;78.27;99312.03;6249726;22;20564;-90
2022/11/30 04:26:33;;;;;;;4.77;2.17;;;;;;;10.00;79.65;99314.16;6276508;22;20178;-90
2022/11/30 04:28:59;;;;;;;4.43;1.83;;;;;;;10.07;79.21;99316.41;6250081;22;20220;-90
2022/11/30 04:31:24;;;;;;;9.03;2.30;;;;;;;10.12;79.44;99322.31;6249803;22;20148;-91
2022/11/30 04:33:53;;;;;;;6.93;2.63;;;;;;;10.09;78.86;99327.66;6277198;22;20144;-90
2022/11/30 04:36:19;;;;;;;4.87;2.30;;;;;;;10.05;79.69;99328.72;6250179;22;20148;-90
2022/11/30 04:38:45;;;;;;;4.17;2.37;;;;;;;10.20;79.10;99328.03;6276442;22;20163;-90
2022/11/30 04:41:11;;;;;;;5.70;2.40;;;;;;;10.23;78.26;99330.50;6276340;22;20196;-90
2022/11/30 04:43:36;;;;;;;5.30;2.30;;;;;;;10.11;78.51;99328.44;6249736;22;20191;-90
2022/11/30 04:46:03;;;;;;;4.97;2.33;;;;;;;10.21;78.35;99319.25;6277440;22;20210;-89
2022/11/30 04:48:29;;;;;;;6.10;2.33;;;;;;;10.28;78.18;99317.16;6249686;22;20527;-90
2022/11/30 04:51:00;;;;;;;3.67;1.77;;;;;;;10.30;77.79;99313.56;6277074;22;20210;-90
2022/11/30 04:53:25;;;;;;;4.43;1.77;;;;;;;10.16;77.94;99318.63;6249671;22;20156;-90
2022/11/30 04:55:51;;;;;;;2.90;1.70;;;;;;;10.18;77.77;99327.25;6250323;22;20186;-90
2022/11/30 04:58:16;;;;;;;4.37;2.03;;;;;;;10.28;77.71;99318.03;6279359;22;20203;-90
2022/11/30 05:00:41;;;;;;;3.90;2.00;;;;;;;10.20;77.77;99328.03;6251462;22;20172;-90
2022/11/30 05:03:07;;;;;;;6.23;2.53;;;;;;;10.15;78.15;99335.25;6278277;22;20144;-90
2022/11/30 05:05:32;;;;;;;6.13;2.47;;;;;;;10.23;78.06;99338.34;6279265;22;20159;-90
2022/11/30 05:07:58;;;;;;;3.27;1.57;;;;;;;10.36;77.64;99333.38;6279250;22;20145;-90
2022/11/30 05:10:25;;;;;;;12.50;2.30;;;;;;;10.42;77.61;99323.47;6251502;22;20144;-90
2022/11/30 05:12:51;;;;;;;3.27;1.80;;;;;;;10.16;77.75;99336.09;6278766;22;20175;-90
2022/11/30 05:15:17;;;;;;;2.60;1.17;;;;;;;10.09;77.42;99340.75;6252466;22;20156;-91
2022/11/30 05:17:42;;;;;;;5.33;2.00;;;;;;;10.16;77.52;99342.19;6252468;22;20148;-91
2022/11/30 05:20:08;;;;;;;10.17;1.93;;;;;;;10.11;77.47;99343.31;6277911;22;20720;-91
2022/11/30 05:22:34;;;;;;;7.17;2.40;;;;;;;10.18;77.53;99339.50;6251739;22;20163;-90
2022/11/30 05:25:00;;;;;;;2.07;1.27;;;;;;;10.00;77.72;99351.66;6279138;22;20148;-90
2022/11/30 05:27:25;;;;;;;2.60;1.30;;;;;;;9.87;78.19;99348.78;6251251;22;20160;-90
2022/11/30 05:29:51;;;;;;;2.43;1.20;;;;;;;9.87;78.47;99338.31;6251397;22;20183;-89
2022/11/30 05:32:16;;;;;;;1.97;1.03;;;;;;;9.94;78.15;99341.47;6252385;22;20151;-89
2022/11/30 05:34:42;;;;;;;4.37;2.00;;;;;;;9.95;77.66;99351.03;6251603;22;20547;-90
2022/11/30 05:37:07;;;;;;;5.50;1.50;;;;;;;9.89;78.05;99353.94;6251544;22;20166;-91
2022/11/30 05:39:33;;;;;;;4.27;1.60;;;;;;;9.90;78.25;99353.84;6277953;22;20155;-90
2022/11/30 05:41:58;;;;;;;6.50;1.53;;;;;;;9.75;78.38;99351.94;6277797;22;20243;-89
2022/11/30 05:44:23;;;;;;;3.37;1.50;;;;;;;9.70;78.43;99351.31;6251524;22;20533;-90
2022/11/30 05:46:49;;;;;;;3.57;1.20;;;;;;;9.73;78.85;99364.25;6251149;22;20189;-90
2022/11/30 05:49:14;;;;;;;2.17;0.93;;;;;;;9.68;78.30;99361.00;6251497;22;20621;-90
2022/11/30 05:51:40;;;;;;;3.50;1.33;;;;;;;9.70;79.24;99363.53;6251600;22;20227;-90
2022/11/30 05:54:06;;;;;;;2.37;0.93;;;;;;;9.81;78.35;99363.91;6250877;22;20576;-91
2022/11/30 05:56:31;;;;;;;2.20;1.30;;;;;;;9.82;78.07;99369.09;6250881;22;20159;-90
2022/11/30 05:58:57;;;;;;;2.67;1.20;;;;;;;9.61;78.48;99370.06;6278232;22;20145;-90
2022/11/30 06:01:24;;;;;;;3.30;1.50;;;;;;;9.61;78.11;99379.66;6250872;22;20259;-90
2022/11/30 06:03:50;;;;;;;2.63;1.47;;;;;;;9.67;78.81;99385.47;6251280;22;20153;-90
2022/11/30 06:06:16;;;;;;;8.73;1.47;;;;;;;9.67;78.68;99375.00;6250861;22;20163;-90
2022/11/30 06:08:42;;;;;;;3.00;1.43;;;;;;;9.76;78.01;99371.13;6250900;22;20162;-91
2022/11/30 06:11:08;;;;;;;4.63;1.77;;;;;;;9.83;78.25;99380.38;6250930;22;20145;-90
2022/11/30 06:13:33;;;;;;;2.80;1.13;;;;;;;9.64;78.08;99375.13;6277530;22;20591;-91
2022/11/30 06:16:00;;;;;;;2.23;1.07;;;;;;;9.61;78.76;99382.28;6278585;22;20231;-91
2022/11/30 06:18:25;;;;;;;3.47;1.20;;;;;;;9.78;77.98;99384.97;6250838;22;20152;-90
2022/11/30 06:20:51;;;;;;;5.30;1.20;;;;;;;9.68;78.65;99387.16;6245989;23;20220;-91
2022/11/30 06:23:16;;;;;;;2.60;1.00;;;;;;;9.48;79.56;99386.34;6245665;23;20293;-90
2022/11/30 06:25:42;;;;;;;2.50;0.90;;;;;;;9.40;79.75;99386.69;6245601;23;20153;-90
2022/11/30 06:28:10;;;;;;;2.53;1.47;;;;;;;9.65;78.90;99383.81;6246446;23;20156;-90
2022/11/30 06:30:36;;;;;;;2.07;1.20;;;;;;;9.69;78.60;99393.25;6247135;22;20202;-89
2022/11/30 06:33:02;;;;;;;2.57;1.63;;;;;;;9.67;78.44;99395.09;6246583;23;20160;-90
2022/11/30 06:35:28;;;;;;;3.10;1.57;;;;;;;9.85;78.20;99396.88;6246228;23;20471;-90
2022/11/30 06:37:54;;;;;;;3.60;2.10;;;;;;;9.71;78.39;99401.88;6247083;22;20541;-91
2022/11/30 06:40:19;;;;;;;2.83;1.30;;;;;;;9.70;78.36;99401.03;6246224;23;20149;-90
2022/11/30 06:42:45;;;;;;;3.27;1.70;;;;;;;9.76;78.51;99402.53;6247672;22;20246;-90
2022/11/30 06:45:11;;;;;;;3.17;1.27;;;;;;;9.92;78.03;99400.06;6246147;23;20254;-91
2022/11/30 06:47:36;;;;;;;5.17;1.63;;;;;;;9.87;77.47;99401.13;6246576;22;20267;-88
2022/11/30 06:50:02;;;;;;;4.27;1.40;;;;;;;9.68;78.50;99397.63;6246542;23;20216;-89
2022/11/30 06:52:30;;;;;;;3.17;1.63;;;;;;;9.59;79.28;99402.44;6245220;23;20148;-91
2022/11/30 06:54:55;;;;;;;5.80;1.97;;;;;;;9.77;78.51;99406.84;6245694;23;20153;-91
2022/11/30 06:57:25;;;;;;;4.23;2.43;;;;;;;9.62;78.74;99402.28;6246605;22;20145;-91
2022/11/30 06:59:51;;;;;;;5.53;2.20;;;;;;;9.68;78.62;99402.88;6245302;23;20157;-90
2022/11/30 07:02:16;;;;;;;2.93;1.23;;;;;;;9.65;78.80;99402.16;6245055;23;20188;-90
2022/11/30 07:04:41;;;;;;;5.73;1.70;;;;;;;9.80;78.00;99406.72;6245232;23;20176;-91
2022/11/30 07:07:07;;;;;;;6.67;1.27;;;;;;;9.77;78.04;99406.84;6246442;22;20148;-90
2022/11/30 07:09:36;;;;;;;5.90;1.83;;;;;;;9.80;78.11;99409.34;6246393;22;20149;-91
2022/11/30 07:12:02;;;;;;;3.87;1.17;;;;;;;9.85;78.45;99405.56;6245565;23;20145;-91
2022/11/30 07:14:29;;;;;;;2.30;0.80;;;;;;;9.82;77.26;99400.50;6246308;22;20157;-90
2022/11/30 07:16:55;;;;;;;2.73;1.10;;;;;;;9.92;77.65;99398.31;6246393;22;20703;-90
2022/11/30 07:19:21;;;;;;;4.47;1.43;;;;;;;9.76;77.61;99395.53;6254534;22;20196;-91
2022/11/30 07:21:46;;;;;;;2.30;1.13;;;;;;;9.80;77.62;99396.25;6277121;22;20168;-90
2022/11/30 07:27:01;;;;;;;1.63;0.80;;;;;;;9.79;77.24;99398.00;6276650;22;20175;-90
2022/11/30 07:29:27;;;;;;;4.90;1.30;;;;;;;9.68;77.94;99394.16;6277531;22;20193;-91
2022/11/30 07:31:53;;;;;;;2.70;0.90;;;;;;;9.65;78.09;99396.91;6250424;22;20145;-90
2022/11/30 07:34:19;;;;;;;2.87;1.17;;;;;;;9.68;78.02;99391.56;6250346;22;20159;-89
2022/11/30 07:36:46;;;;;;;3.50;1.60;;;;;;;9.49;78.71;99401.97;6277005;22;20572;-91
2022/11/30 07:39:12;;;;;;;2.10;1.27;;;;;;;9.64;78.05;99408.31;6250241;22;20241;-91
2022/11/30 07:41:38;;;;;;;2.47;0.97;;;;;;;9.62;78.46;99412.75;6277347;22;20262;-90
2022/11/30 07:44:05;;;;;;;4.40;1.60;;;;;;;9.64;78.27;99414.38;6250354;22;20245;-91
2022/11/30 07:46:32;;;;;;;3.43;1.40;;;;;;;9.60;78.92;99420.69;6249964;22;20640;-90
2022/11/30 07:48:58;;;;;;;3.37;1.57;;;;;;;9.73;78.07;99424.47;6277066;22;20209;-91
2022/11/30 07:51:23;;;;;;;5.17;1.57;;;;;;;9.86;77.48;99427.38;6249790;22;20152;-90
2022/11/30 07:53:49;;;;;;;2.83;1.30;;;;;;;9.75;77.29;99430.47;6249881;22;20152;-90
2022/11/30 07:56:17;;;;;;;3.03;1.53;;;;;;;9.74;77.54;99430.56;6250218;22;20232;-91
2022/11/30 07:58:43;;;;;;;2.83;1.50;;;;;;;9.75;77.40;99430.47;6250220;22;20173;-90
2022/11/30 08:01:35;;;;;;;5.83;2.20;;;;;;;9.75;78.04;99427.00;6276774;22;20172;-92
2022/11/30 08:04:01;;;;;;;2.57;1.23;;;;;;;9.70;77.89;99432.44;6243856;22;20168;-91
2022/11/30 08:06:30;;;;;;;1.93;1.03;;;;;;;9.65;78.27;99430.94;6250791;22;20442;-92
2022/11/30 08:09:02;;;;;;;4.70;2.17;;;;;;;9.73;78.13;99439.31;6249783;22;20606;-90
2022/11/30 08:11:32;;;;;;;5.10;1.53;;;;;;;9.73;78.02;99437.53;6276890;22;20564;-90
2022/11/30 08:13:57;;;;;;;4.97;1.87;;;;;;;9.85;77.24;99436.97;6276858;22;20155;-90
2022/11/30 08:16:25;;;;;;;2.83;1.27;;;;;;;9.88;76.88;99434.22;6250103;22;20155;-91
2022/11/30 08:18:51;;;;;;;3.27;1.83;;;;;;;9.78;77.46;99432.94;6249459;22;20499;-91
2022/11/30 08:21:19;;;;;;;5.97;2.07;;;;;;;9.69;78.05;99440.38;6250341;22;20184;-90
2022/11/30 08:23:47;;;;;;;4.47;2.23;;;;;;;9.67;79.29;99436.97;6250588;22;20179;-91
2022/11/30 08:26:15;;;;;;;5.70;2.03;;;;;;;9.93;77.62;99439.28;6251103;22;20148;-90
2022/11/30 08:28:42;;;;;;;7.23;1.90;;;;;;;9.93;77.37;99438.44;6276737;22;20175;-89
2022/11/30 08:31:13;;;;;;;10.20;2.37;;;;;;;9.84;77.93;99437.06;6251819;22;20156;-90
2022/11/30 08:33:39;;;;;;;4.67;1.53;;;;;;;9.66;78.10;99435.28;6278793;22;20189;-90
2022/11/30 08:36:18;;;;;;;5.63;2.13;;;;;;;9.71;78.16;99438.53;6278784;22;20155;-90
2022/11/30 08:38:45;;;;;;;4.83;2.07;;;;;;;9.79;78.14;99439.03;6252830;22;20524;-92
2022/11/30 08:41:13;;;;;;;3.80;1.57;;;;;;;9.81;78.25;99434.59;6251977;22;20685;-91
2022/11/30 08:43:39;;;;;;;6.70;3.17;;;;;;;9.98;77.33;99432.06;6251706;22;20156;-91
2022/11/30 08:46:07;;;;;;;7.53;2.33;;;;;;;9.92;77.58;99431.47;6251639;22;20168;-91
2022/11/30 08:48:34;;;;;;;5.17;2.63;;;;;;;10.06;77.39;99429.09;6252051;22;20557;-90
2022/11/30 08:51:04;;;;;;;3.07;1.47;;;;;;;10.12;76.98;99423.56;6252574;22;20572;-90
2022/11/30 08:53:30;;;;;;;4.07;1.90;;;;;;;10.18;76.52;99420.69;6252341;22;20152;-91
2022/11/30 08:56:01;;;;;;;7.97;2.53;;;;;;;10.12;76.51;99418.31;6278523;22;20152;-91
2022/11/30 08:58:30;;;;;;;3.80;2.10;;;;;;;9.94;76.79;99419.16;6251453;22;20148;-90
2022/11/30 09:01:05;;;;;;;4.80;2.73;;;;;;;10.04;76.82;99400.34;6251431;22;20184;-90
2022/11/30 09:03:30;;;;;;;7.00;2.23;;;;;;;10.05;77.06;99403.81;6278606;22;20524;-91
2022/11/30 09:06:02;;;;;;;4.50;1.83;;;;;;;10.06;76.83;99403.78;6251444;22;20163;-90
2022/11/30 09:08:28;;;;;;;4.30;2.20;;;;;;;10.21;76.31;99392.59;6278150;22;20140;-90
2022/11/30 09:10:53;;;;;;;6.83;2.50;;;;;;;10.06;76.75;99395.91;6251741;22;20219;-92
2022/11/30 09:13:19;;;;;;;6.97;2.13;;;;;;;10.01;77.03;99392.63;6251387;22;20153;-90
2022/11/30 09:15:52;;;;;;;4.53;2.33;;;;;;;9.99;77.26;99386.63;6251337;22;20179;-90
2022/11/30 09:18:17;;;;;;;4.80;2.40;;;;;;;9.97;77.86;99391.09;6251369;22;20172;-90
2022/11/30 09:20:43;;;;;;;3.67;2.30;;;;;;;10.11;77.24;99391.31;6246931;23;20193;-91
2022/11/30 09:23:08;;;;;;;4.53;1.90;;;;;;;10.13;76.95;99386.88;6246152;23;20187;-89
2022/11/30 09:25:34;;;;;;;4.50;2.57;;;;;;;10.14;76.62;99385.09;6247325;22;20244;-89
2022/11/30 09:27:59;;;;;;;3.67;2.10;;;;;;;9.92;77.48;99384.34;6247672;22;20145;-91
2022/11/30 09:30:25;;;;;;;4.17;1.90;;;;;;;9.76;78.84;99394.66;6246228;23;20161;-91
2022/11/30 09:32:50;;;;;;;4.47;1.90;;;;;;;9.83;78.60;99386.47;6246180;23;20608;-90
2022/11/30 09:35:15;;;;;;;6.07;1.87;;;;;;;10.04;77.72;99381.16;6247281;22;20155;-89
2022/11/30 09:37:41;;;;;;;9.10;2.50;;;;;;;10.04;78.00;99384.63;6247178;23;20501;-90
2022/11/30 09:40:07;;;;;;;5.77;2.17;;;;;;;10.15;77.36;99381.53;6247106;23;20156;-90
2022/11/30 09:42:47;;;;;;;3.53;1.77;;;;;;;9.97;77.78;99383.22;6245404;23;20605;-90
2022/11/30 09:45:21;;;;;;;2.77;1.87;;;;;;;10.08;77.42;99385.34;6247504;22;20133;-89
2022/11/30 09:48:17;;;;;;;3.20;1.63;;;;;;;10.28;76.95;99388.75;6245955;23;20481;-90
2022/11/30 09:50:46;;;;;;;7.37;1.80;;;;;;;10.22;75.93;99382.97;6247848;22;20129;-91
2022/11/30 09:53:37;;;;;;;2.13;1.27;;;;;;;10.23;76.56;99382.91;6247131;22;20157;-90
2022/11/30 09:56:14;;;;;;;4.30;2.20;;;;;;;10.20;76.13;99382.19;6247471;22;20196;-90
2022/11/30 09:58:47;;;;;;;5.20;2.30;;;;;;;10.13;76.70;99381.63;6247710;22;20215;-90
2022/11/30 10:01:17;;;;;;;4.83;2.17;;;;;;;10.17;76.59;99377.94;6247327;22;20188;-90
2022/11/30 10:03:42;;;;;;;3.73;1.60;;;;;;;10.14;76.81;99378.06;6247430;22;20153;-90
2022/11/30 10:06:13;;;;;;;5.27;2.50;;;;;;;10.12;76.83;99387.78;6245796;23;20164;-90
2022/11/30 10:09:15;;;;;;;4.27;1.97;;;;;;;10.20;77.13;99383.03;6247657;22;20149;-91
2022/11/30 10:11:46;;;;;;;3.80;2.00;;;;;;;10.12;76.45;99379.03;6245746;23;20147;-90
2022/11/30 10:14:42;;;;;;;5.03;1.90;;;;;;;10.02;77.38;99380.38;6247163;23;20142;-90
2022/11/30 10:17:25;;;;;;;5.43;2.27;;;;;;;10.26;76.44;99379.28;6247326;22;20137;-89
2022/11/30 10:20:27;;;;;;;11.03;2.13;;;;;;;10.01;77.16;99379.53;6261871;22;20164;-90
2022/11/30 10:23:01;;;;;;;2.70;1.53;;;;;;;10.11;76.60;99379.97;6277447;22;20144;-90
2022/11/30 10:25:45;;;;;;;5.03;2.20;;;;;;;10.06;77.46;99380.19;6277721;22;20147;-90
2022/11/30 10:28:42;;;;;;;3.83;1.77;;;;;;;10.18;77.13;99382.25;6277782;22;20159;-90
2022/11/30 10:31:11;;;;;;;3.70;1.83;;;;;;;10.06;77.03;99389.81;6199615;22;20148;-90
2022/11/30 10:33:43;;;;;;;3.93;1.83;;;;;;;10.02;77.32;99383.00;6277522;22;20243;-90
2022/11/30 10:36:14;;;;;;;6.43;2.37;;;;;;;10.33;76.48;99380.69;6250458;22;20156;-90
2022/11/30 10:38:47;;;;;;;5.53;1.90;;;;;;;10.44;76.13;99388.88;6278377;22;20146;-89
2022/11/30 10:41:20;;;;;;;5.03;2.30;;;;;;;10.45;76.07;99383.56;6277602;22;20199;-89
2022/11/30 10:43:51;;;;;;;5.57;1.67;;;;;;;10.62;75.57;99379.28;6277254;22;20141;-91
2022/11/30 10:46:21;;;;;;;3.10;1.53;;;;;;;10.63;74.51;99383.59;6277793;22;20132;-89
2022/11/30 10:49:01;;;;;;;5.07;1.70;;;;;;;10.54;75.13;99384.03;6277143;22;20148;-90
2022/11/30 10:51:28;;;;;;;4.10;1.43;;;;;;;10.48;74.98;99380.78;6277114;22;20128;-90
2022/11/30 10:53:54;;;;;;;8.27;2.40;;;;;;;10.55;75.02;99386.59;6277053;22;20144;-90
2022/11/30 10:56:19;;;;;;;3.07;1.83;;;;;;;10.62;74.95;99381.88;6277353;22;20219;-91
2022/11/30 10:59:09;;;;;;;8.17;1.93;;;;;;;10.64;75.31;99377.44;6251145;22;20231;-90
2022/11/30 11:01:38;;;;;;;3.03;1.70;;;;;;;10.62;75.60;99372.25;6277333;22;20569;-91
2022/11/30 11:04:24;;;;;;;3.53;1.87;;;;;;;10.78;74.09;99377.59;6277046;22;20144;-90
2022/11/30 11:06:54;;;;;;;3.53;1.63;;;;;;;10.58;74.99;99380.34;6250271;22;20148;-90
2022/11/30 11:09:28;;;;;;;2.53;1.43;;;;;;;10.58;75.44;99377.75;6276948;22;20194;-90
2022/11/30 11:11:57;;;;;;;3.70;1.70;;;;;;;10.74;74.63;99376.91;6277210;22;20144;-91
2022/11/30 11:14:25;;;;;;;5.43;2.30;;;;;;;10.77;75.01;99382.00;6277294;22;20149;-90
2022/11/30 11:16:56;;;;;;;8.53;2.00;;;;;;;10.87;74.65;99378.00;6250237;22;20148;-90
2022/11/30 11:19:36;;;;;;;6.53;2.07;;;;;;;10.92;74.41;99381.25;6245061;23;20164;-90
2022/11/30 11:22:12;;;;;;;3.67;2.00;;;;;;;10.94;73.89;99378.53;6246598;22;20251;-90
2022/11/30 11:24:37;;;;;;;4.10;2.00;;;;;;;10.84;74.59;99372.06;6246118;23;20465;-90
2022/11/30 11:27:03;;;;;;;3.97;1.60;;;;;;;10.83;74.46;99368.59;6246175;22;20184;-90
2022/11/30 11:29:34;;;;;;;3.97;1.80;;;;;;;10.81;74.46;99366.97;6245291;23;20165;-90
2022/11/30 11:32:17;;;;;;;3.07;1.80;;;;;;;10.74;74.74;99370.81;6244880;23;20152;-89
2022/11/30 11:34:44;;;;;;;4.43;1.70;;;;;;;10.75;75.04;99375.13;6244998;23;20234;-91
2022/11/30 11:37:22;;;;;;;2.77;1.47;;;;;;;10.63;75.40;99371.34;6245642;23;20159;-89
2022/11/30 11:40:07;;;;;;;2.63;1.60;;;;;;;10.53;75.94;99371.88;6246724;22;20141;-90
2022/11/30 11:42:43;;;;;;;3.43;1.43;;;;;;;10.42;77.04;99383.72;6246331;22;20180;-90